sensor_id;sensor_type;location;lat;lon;timestamp;P1;durP1;ratioP1;P2;durP2;ratioP2
12474;SDS011;6302;42.624;23.334;2022-08-03T00:01:32;1.20;;;1.10;;
12474;SDS011;6302;42.624;23.334;2022-08-03T00:03:59;1.30;;;1.20;;
12474;SDS011;6302;42.624;23.334;2022-08-03T00:06:27;1.40;;;1.30;;
12474;SDS011;6302;42.624;23.334;2022-08-03T00:08:55;1.20;;;1.10;;
12474;SDS011;6302;42.624;23.334;2022-08-03T00:11:22;1.10;;;1.10;;
12474;SDS011;6302;42.624;23.334;2022-08-03T00:13:49;1.45;;;1.17;;
12474;SDS011;6302;42.624;23.334;2022-08-03T00:16:16;1.30;;;1.20;;
12474;SDS011;6302;42.624;23.334;2022-08-03T00:18:42;1.25;;;1.17;;
12474;SDS011;6302;42.624;23.334;2022-08-03T00:21:10;1.17;;;1.17;;
12474;SDS011;6302;42.624;23.334;2022-08-03T00:23:37;1.10;;;1.00;;
12474;SDS011;6302;42.624;23.334;2022-08-03T00:26:05;1.20;;;1.20;;
12474;SDS011;6302;42.624;23.334;2022-08-03T00:28:32;1.13;;;1.10;;
12474;SDS011;6302;42.624;23.334;2022-08-03T00:30:59;1.30;;;1.10;;
12474;SDS011;6302;42.624;23.334;2022-08-03T00:33:26;1.23;;;1.13;;
12474;SDS011;6302;42.624;23.334;2022-08-03T00:35:53;1.30;;;1.20;;
12474;SDS011;6302;42.624;23.334;2022-08-03T00:38:19;1.40;;;1.30;;
12474;SDS011;6302;42.624;23.334;2022-08-03T00:40:46;1.30;;;1.20;;
12474;SDS011;6302;42.624;23.334;2022-08-03T00:43:14;1.30;;;1.20;;
12474;SDS011;6302;42.624;23.334;2022-08-03T00:45:42;1.50;;;1.40;;
12474;SDS011;6302;42.624;23.334;2022-08-03T00:48:09;1.48;;;1.38;;
12474;SDS011;6302;42.624;23.334;2022-08-03T00:50:39;1.50;;;1.40;;
12474;SDS011;6302;42.624;23.334;2022-08-03T00:53:09;1.80;;;1.70;;
12474;SDS011;6302;42.624;23.334;2022-08-03T00:55:37;1.38;;;1.27;;
12474;SDS011;6302;42.624;23.334;2022-08-03T00:58:04;1.50;;;1.40;;
12474;SDS011;6302;42.624;23.334;2022-08-03T01:00:34;1.63;;;1.53;;
12474;SDS011;6302;42.624;23.334;2022-08-03T01:03:03;2.75;;;1.40;;
12474;SDS011;6302;42.624;23.334;2022-08-03T01:05:31;3.63;;;1.70;;
12474;SDS011;6302;42.624;23.334;2022-08-03T01:08:05;1.70;;;1.60;;
12474;SDS011;6302;42.624;23.334;2022-08-03T01:10:39;1.60;;;1.50;;
12474;SDS011;6302;42.624;23.334;2022-08-03T01:13:16;1.63;;;1.53;;
12474;SDS011;6302;42.624;23.334;2022-08-03T01:15:53;1.37;;;1.27;;
12474;SDS011;6302;42.624;23.334;2022-08-03T01:18:26;2.37;;;1.67;;
12474;SDS011;6302;42.624;23.334;2022-08-03T01:21:02;1.63;;;1.52;;
12474;SDS011;6302;42.624;23.334;2022-08-03T01:26:47;1.83;;;1.50;;
12474;SDS011;6302;42.624;23.334;2022-08-03T01:35:14;1.87;;;1.77;;
12474;SDS011;6302;42.624;23.334;2022-08-03T01:37:49;2.30;;;2.00;;
12474;SDS011;6302;42.624;23.334;2022-08-03T01:40:18;2.17;;;1.97;;
12474;SDS011;6302;42.624;23.334;2022-08-03T01:42:46;2.00;;;1.80;;
12474;SDS011;6302;42.624;23.334;2022-08-03T01:45:15;2.20;;;1.77;;
12474;SDS011;6302;42.624;23.334;2022-08-03T01:47:45;2.23;;;2.10;;
12474;SDS011;6302;42.624;23.334;2022-08-03T01:50:14;3.57;;;1.93;;
12474;SDS011;6302;42.624;23.334;2022-08-03T01:52:44;2.20;;;2.00;;
12474;SDS011;6302;42.624;23.334;2022-08-03T01:55:13;2.30;;;2.10;;
12474;SDS011;6302;42.624;23.334;2022-08-03T01:57:44;2.00;;;1.90;;
12474;SDS011;6302;42.624;23.334;2022-08-03T02:00:14;3.43;;;2.30;;
12474;SDS011;6302;42.624;23.334;2022-08-03T02:02:41;2.07;;;1.97;;
12474;SDS011;6302;42.624;23.334;2022-08-03T02:05:11;2.20;;;2.10;;
12474;SDS011;6302;42.624;23.334;2022-08-03T02:07:41;2.27;;;2.07;;
12474;SDS011;6302;42.624;23.334;2022-08-03T02:10:12;2.13;;;1.77;;
12474;SDS011;6302;42.624;23.334;2022-08-03T02:12:41;2.60;;;2.40;;
12474;SDS011;6302;42.624;23.334;2022-08-03T02:15:09;2.70;;;2.50;;
12474;SDS011;6302;42.624;23.334;2022-08-03T02:17:37;2.27;;;2.07;;
12474;SDS011;6302;42.624;23.334;2022-08-03T02:20:06;2.40;;;2.20;;
12474;SDS011;6302;42.624;23.334;2022-08-03T02:22:38;4.53;;;2.47;;
12474;SDS011;6302;42.624;23.334;2022-08-03T02:25:07;4.53;;;2.87;;
12474;SDS011;6302;42.624;23.334;2022-08-03T02:27:35;4.80;;;3.70;;
12474;SDS011;6302;42.624;23.334;2022-08-03T02:30:07;7.80;;;4.30;;
12474;SDS011;6302;42.624;23.334;2022-08-03T02:32:36;6.17;;;4.17;;
12474;SDS011;6302;42.624;23.334;2022-08-03T02:35:08;5.87;;;4.03;;
12474;SDS011;6302;42.624;23.334;2022-08-03T02:37:40;4.63;;;3.20;;
12474;SDS011;6302;42.624;23.334;2022-08-03T02:40:09;5.90;;;3.20;;
12474;SDS011;6302;42.624;23.334;2022-08-03T02:42:37;3.10;;;2.70;;
12474;SDS011;6302;42.624;23.334;2022-08-03T02:45:08;3.47;;;2.87;;
12474;SDS011;6302;42.624;23.334;2022-08-03T02:47:38;2.83;;;2.53;;
12474;SDS011;6302;42.624;23.334;2022-08-03T02:50:07;3.07;;;2.77;;
12474;SDS011;6302;42.624;23.334;2022-08-03T02:52:36;3.50;;;3.07;;
12474;SDS011;6302;42.624;23.334;2022-08-03T02:55:07;3.63;;;2.23;;
12474;SDS011;6302;42.624;23.334;2022-08-03T02:57:36;2.60;;;2.40;;
12474;SDS011;6302;42.624;23.334;2022-08-03T03:00:05;2.73;;;2.30;;
12474;SDS011;6302;42.624;23.334;2022-08-03T03:02:33;2.00;;;1.90;;
12474;SDS011;6302;42.624;23.334;2022-08-03T03:05:02;2.73;;;2.33;;
12474;SDS011;6302;42.624;23.334;2022-08-03T03:07:29;2.70;;;2.30;;
12474;SDS011;6302;42.624;23.334;2022-08-03T03:09:58;3.97;;;2.50;;
12474;SDS011;6302;42.624;23.334;2022-08-03T03:12:27;2.93;;;2.73;;
12474;SDS011;6302;42.624;23.334;2022-08-03T03:14:55;2.93;;;2.67;;
12474;SDS011;6302;42.624;23.334;2022-08-03T03:17:21;2.90;;;2.70;;
12474;SDS011;6302;42.624;23.334;2022-08-03T03:19:49;4.23;;;2.43;;
12474;SDS011;6302;42.624;23.334;2022-08-03T03:22:17;2.43;;;2.27;;
12474;SDS011;6302;42.624;23.334;2022-08-03T03:24:45;3.43;;;2.53;;
12474;SDS011;6302;42.624;23.334;2022-08-03T03:27:15;2.90;;;2.50;;
12474;SDS011;6302;42.624;23.334;2022-08-03T03:29:41;2.73;;;2.53;;
12474;SDS011;6302;42.624;23.334;2022-08-03T03:32:09;3.13;;;2.93;;
12474;SDS011;6302;42.624;23.334;2022-08-03T03:34:36;4.53;;;3.60;;
12474;SDS011;6302;42.624;23.334;2022-08-03T03:37:03;4.60;;;3.53;;
12474;SDS011;6302;42.624;23.334;2022-08-03T03:39:30;4.37;;;3.97;;
12474;SDS011;6302;42.624;23.334;2022-08-03T03:41:57;6.23;;;4.03;;
12474;SDS011;6302;42.624;23.334;2022-08-03T03:44:28;4.93;;;3.73;;
12474;SDS011;6302;42.624;23.334;2022-08-03T03:46:55;5.43;;;3.80;;
12474;SDS011;6302;42.624;23.334;2022-08-03T03:49:23;6.00;;;3.57;;
12474;SDS011;6302;42.624;23.334;2022-08-03T03:51:51;4.33;;;3.67;;
12474;SDS011;6302;42.624;23.334;2022-08-03T03:54:18;4.13;;;3.40;;
12474;SDS011;6302;42.624;23.334;2022-08-03T03:56:45;4.17;;;3.73;;
12474;SDS011;6302;42.624;23.334;2022-08-03T03:59:12;4.90;;;3.50;;
12474;SDS011;6302;42.624;23.334;2022-08-03T04:01:40;3.47;;;3.10;;
12474;SDS011;6302;42.624;23.334;2022-08-03T04:04:07;7.87;;;3.60;;
12474;SDS011;6302;42.624;23.334;2022-08-03T04:06:47;3.63;;;3.33;;
12474;SDS011;6302;42.624;23.334;2022-08-03T04:09:33;3.23;;;2.93;;
12474;SDS011;6302;42.624;23.334;2022-08-03T04:12:18;4.63;;;3.27;;
12474;SDS011;6302;42.624;23.334;2022-08-03T04:14:48;4.63;;;2.77;;
12474;SDS011;6302;42.624;23.334;2022-08-03T04:17:19;3.93;;;3.33;;
12474;SDS011;6302;42.624;23.334;2022-08-03T04:19:51;4.18;;;2.88;;
12474;SDS011;6302;42.624;23.334;2022-08-03T04:22:20;3.40;;;3.10;;
12474;SDS011;6302;42.624;23.334;2022-08-03T04:24:52;4.33;;;3.47;;
12474;SDS011;6302;42.624;23.334;2022-08-03T04:27:26;3.50;;;3.20;;
12474;SDS011;6302;42.624;23.334;2022-08-03T04:29:57;4.60;;;4.20;;
12474;SDS011;6302;42.624;23.334;2022-08-03T04:32:31;5.37;;;4.57;;
12474;SDS011;6302;42.624;23.334;2022-08-03T04:35:00;5.00;;;4.30;;
12474;SDS011;6302;42.624;23.334;2022-08-03T04:37:29;5.00;;;4.30;;
12474;SDS011;6302;42.624;23.334;2022-08-03T04:40:01;4.20;;;3.80;;
12474;SDS011;6302;42.624;23.334;2022-08-03T04:42:31;4.97;;;3.20;;
12474;SDS011;6302;42.624;23.334;2022-08-03T04:44:59;5.70;;;4.57;;
12474;SDS011;6302;42.624;23.334;2022-08-03T04:47:32;6.40;;;4.50;;
12474;SDS011;6302;42.624;23.334;2022-08-03T04:50:00;8.33;;;4.90;;
12474;SDS011;6302;42.624;23.334;2022-08-03T04:52:27;10.57;;;6.03;;
12474;SDS011;6302;42.624;23.334;2022-08-03T04:54:55;3.73;;;3.33;;
12474;SDS011;6302;42.624;23.334;2022-08-03T04:57:24;4.03;;;3.50;;
12474;SDS011;6302;42.624;23.334;2022-08-03T04:59:51;5.27;;;3.50;;
12474;SDS011;6302;42.624;23.334;2022-08-03T05:02:20;5.78;;;3.17;;
12474;SDS011;6302;42.624;23.334;2022-08-03T05:04:49;4.13;;;2.93;;
12474;SDS011;6302;42.624;23.334;2022-08-03T05:07:16;3.83;;;3.28;;
12474;SDS011;6302;42.624;23.334;2022-08-03T05:09:44;4.28;;;3.88;;
12474;SDS011;6302;42.624;23.334;2022-08-03T05:12:11;7.15;;;4.18;;
12474;SDS011;6302;42.624;23.334;2022-08-03T05:14:38;8.40;;;4.03;;
12474;SDS011;6302;42.624;23.334;2022-08-03T05:17:05;7.17;;;4.07;;
12474;SDS011;6302;42.624;23.334;2022-08-03T05:19:32;6.97;;;3.50;;
12474;SDS011;6302;42.624;23.334;2022-08-03T05:22:01;5.63;;;3.85;;
12474;SDS011;6302;42.624;23.334;2022-08-03T05:24:28;8.30;;;3.70;;
12474;SDS011;6302;42.624;23.334;2022-08-03T05:26:55;10.07;;;4.03;;
12474;SDS011;6302;42.624;23.334;2022-08-03T05:29:21;9.80;;;3.77;;
12474;SDS011;6302;42.624;23.334;2022-08-03T05:31:48;7.32;;;3.58;;
12474;SDS011;6302;42.624;23.334;2022-08-03T05:34:15;7.03;;;3.73;;
12474;SDS011;6302;42.624;23.334;2022-08-03T05:36:42;10.93;;;4.83;;
12474;SDS011;6302;42.624;23.334;2022-08-03T05:39:10;4.47;;;3.60;;
12474;SDS011;6302;42.624;23.334;2022-08-03T05:41:37;5.10;;;3.30;;
12474;SDS011;6302;42.624;23.334;2022-08-03T05:44:04;8.70;;;4.53;;
12474;SDS011;6302;42.624;23.334;2022-08-03T05:46:31;6.97;;;4.17;;
12474;SDS011;6302;42.624;23.334;2022-08-03T05:48:58;5.07;;;4.17;;
12474;SDS011;6302;42.624;23.334;2022-08-03T05:51:25;4.03;;;3.60;;
12474;SDS011;6302;42.624;23.334;2022-08-03T05:53:53;4.18;;;3.42;;
12474;SDS011;6302;42.624;23.334;2022-08-03T05:56:22;6.57;;;3.55;;
12474;SDS011;6302;42.624;23.334;2022-08-03T05:58:49;4.90;;;3.42;;
12474;SDS011;6302;42.624;23.334;2022-08-03T06:01:17;4.37;;;3.37;;
12474;SDS011;6302;42.624;23.334;2022-08-03T06:03:46;6.13;;;3.17;;
12474;SDS011;6302;42.624;23.334;2022-08-03T06:06:14;3.90;;;3.30;;
12474;SDS011;6302;42.624;23.334;2022-08-03T06:08:42;4.45;;;3.17;;
12474;SDS011;6302;42.624;23.334;2022-08-03T06:11:10;4.03;;;3.15;;
12474;SDS011;6302;42.624;23.334;2022-08-03T06:13:39;4.20;;;3.50;;
12474;SDS011;6302;42.624;23.334;2022-08-03T06:16:06;7.05;;;3.50;;
12474;SDS011;6302;42.624;23.334;2022-08-03T06:18:33;4.68;;;2.90;;
12474;SDS011;6302;42.624;23.334;2022-08-03T06:21:00;5.10;;;3.03;;
12474;SDS011;6302;42.624;23.334;2022-08-03T06:23:27;5.05;;;3.22;;
12474;SDS011;6302;42.624;23.334;2022-08-03T06:25:55;3.53;;;3.17;;
12474;SDS011;6302;42.624;23.334;2022-08-03T06:28:22;5.38;;;3.75;;
12474;SDS011;6302;42.624;23.334;2022-08-03T06:30:51;4.82;;;3.42;;
12474;SDS011;6302;42.624;23.334;2022-08-03T06:33:17;5.93;;;2.95;;
12474;SDS011;6302;42.624;23.334;2022-08-03T06:35:44;5.95;;;3.30;;
12474;SDS011;6302;42.624;23.334;2022-08-03T06:38:11;3.92;;;3.40;;
12474;SDS011;6302;42.624;23.334;2022-08-03T06:40:38;5.00;;;3.08;;
12474;SDS011;6302;42.624;23.334;2022-08-03T06:43:06;5.95;;;3.40;;
12474;SDS011;6302;42.624;23.334;2022-08-03T06:45:33;9.77;;;4.30;;
12474;SDS011;6302;42.624;23.334;2022-08-03T06:48:02;5.70;;;4.70;;
12474;SDS011;6302;42.624;23.334;2022-08-03T06:50:30;12.98;;;6.13;;
12474;SDS011;6302;42.624;23.334;2022-08-03T06:52:57;7.78;;;4.35;;
12474;SDS011;6302;42.624;23.334;2022-08-03T06:55:24;7.32;;;3.58;;
12474;SDS011;6302;42.624;23.334;2022-08-03T06:57:51;7.45;;;4.20;;
12474;SDS011;6302;42.624;23.334;2022-08-03T07:00:18;6.35;;;3.53;;
12474;SDS011;6302;42.624;23.334;2022-08-03T07:02:46;4.15;;;3.72;;
12474;SDS011;6302;42.624;23.334;2022-08-03T07:05:14;6.50;;;3.75;;
12474;SDS011;6302;42.624;23.334;2022-08-03T07:07:42;8.43;;;4.18;;
12474;SDS011;6302;42.624;23.334;2022-08-03T07:10:09;5.28;;;3.47;;
12474;SDS011;6302;42.624;23.334;2022-08-03T07:12:37;4.60;;;3.50;;
12474;SDS011;6302;42.624;23.334;2022-08-03T07:15:04;8.43;;;3.85;;
12474;SDS011;6302;42.624;23.334;2022-08-03T07:17:33;8.50;;;4.03;;
12474;SDS011;6302;42.624;23.334;2022-08-03T07:20:02;8.85;;;3.38;;
12474;SDS011;6302;42.624;23.334;2022-08-03T07:22:32;9.05;;;3.70;;
12474;SDS011;6302;42.624;23.334;2022-08-03T07:24:59;4.18;;;3.42;;
12474;SDS011;6302;42.624;23.334;2022-08-03T07:27:27;4.05;;;3.58;;
12474;SDS011;6302;42.624;23.334;2022-08-03T07:29:54;4.78;;;2.88;;
12474;SDS011;6302;42.624;23.334;2022-08-03T07:32:21;6.05;;;3.65;;
12474;SDS011;6302;42.624;23.334;2022-08-03T07:34:48;7.40;;;3.63;;
12474;SDS011;6302;42.624;23.334;2022-08-03T07:37:17;8.50;;;3.65;;
12474;SDS011;6302;42.624;23.334;2022-08-03T07:39:45;7.70;;;3.88;;
12474;SDS011;6302;42.624;23.334;2022-08-03T07:42:12;4.82;;;3.63;;
12474;SDS011;6302;42.624;23.334;2022-08-03T07:44:39;8.68;;;3.55;;
12474;SDS011;6302;42.624;23.334;2022-08-03T07:47:06;5.18;;;3.80;;
12474;SDS011;6302;42.624;23.334;2022-08-03T07:49:33;5.30;;;3.80;;
12474;SDS011;6302;42.624;23.334;2022-08-03T07:52:04;8.57;;;3.08;;
12474;SDS011;6302;42.624;23.334;2022-08-03T07:54:50;7.25;;;3.05;;
12474;SDS011;6302;42.624;23.334;2022-08-03T07:57:17;3.90;;;3.53;;
12474;SDS011;6302;42.624;23.334;2022-08-03T07:59:44;7.90;;;3.88;;
12474;SDS011;6302;42.624;23.334;2022-08-03T08:02:11;3.88;;;3.30;;
12474;SDS011;6302;42.624;23.334;2022-08-03T08:04:38;4.55;;;3.33;;
12474;SDS011;6302;42.624;23.334;2022-08-03T08:07:06;7.95;;;3.40;;
12474;SDS011;6302;42.624;23.334;2022-08-03T08:09:33;4.28;;;3.35;;
12474;SDS011;6302;42.624;23.334;2022-08-03T08:12:01;5.68;;;3.38;;
12474;SDS011;6302;42.624;23.334;2022-08-03T08:14:29;5.45;;;3.67;;
12474;SDS011;6302;42.624;23.334;2022-08-03T08:16:56;7.85;;;3.90;;
12474;SDS011;6302;42.624;23.334;2022-08-03T08:19:23;7.45;;;3.90;;
12474;SDS011;6302;42.624;23.334;2022-08-03T08:21:50;8.63;;;3.70;;
12474;SDS011;6302;42.624;23.334;2022-08-03T08:24:17;5.05;;;3.80;;
12474;SDS011;6302;42.624;23.334;2022-08-03T08:26:43;4.18;;;3.28;;
12474;SDS011;6302;42.624;23.334;2022-08-03T08:29:12;4.03;;;3.33;;
12474;SDS011;6302;42.624;23.334;2022-08-03T08:31:38;8.48;;;3.28;;
12474;SDS011;6302;42.624;23.334;2022-08-03T08:34:05;5.47;;;3.22;;
12474;SDS011;6302;42.624;23.334;2022-08-03T08:36:33;3.67;;;3.20;;
12474;SDS011;6302;42.624;23.334;2022-08-03T08:39:00;6.00;;;3.17;;
12474;SDS011;6302;42.624;23.334;2022-08-03T08:41:27;3.28;;;2.97;;
12474;SDS011;6302;42.624;23.334;2022-08-03T08:43:57;4.60;;;3.03;;
12474;SDS011;6302;42.624;23.334;2022-08-03T08:46:26;4.88;;;3.80;;
12474;SDS011;6302;42.624;23.334;2022-08-03T08:48:55;4.72;;;3.03;;
12474;SDS011;6302;42.624;23.334;2022-08-03T08:51:22;5.75;;;3.20;;
12474;SDS011;6302;42.624;23.334;2022-08-03T08:53:53;3.53;;;3.22;;
12474;SDS011;6302;42.624;23.334;2022-08-03T08:56:24;6.53;;;3.78;;
12474;SDS011;6302;42.624;23.334;2022-08-03T08:58:52;3.70;;;2.90;;
12474;SDS011;6302;42.624;23.334;2022-08-03T09:01:26;4.07;;;2.70;;
12474;SDS011;6302;42.624;23.334;2022-08-03T09:03:54;4.53;;;3.15;;
12474;SDS011;6302;42.624;23.334;2022-08-03T09:06:21;5.18;;;2.90;;
12474;SDS011;6302;42.624;23.334;2022-08-03T09:08:48;3.60;;;2.95;;
12474;SDS011;6302;42.624;23.334;2022-08-03T09:11:16;2.85;;;2.65;;
12474;SDS011;6302;42.624;23.334;2022-08-03T09:13:46;3.55;;;3.13;;
12474;SDS011;6302;42.624;23.334;2022-08-03T09:16:14;3.50;;;2.92;;
12474;SDS011;6302;42.624;23.334;2022-08-03T09:18:44;4.13;;;2.90;;
12474;SDS011;6302;42.624;23.334;2022-08-03T09:21:19;3.38;;;3.08;;
12474;SDS011;6302;42.624;23.334;2022-08-03T09:23:48;3.20;;;2.90;;
12474;SDS011;6302;42.624;23.334;2022-08-03T09:26:19;3.30;;;3.00;;
12474;SDS011;6302;42.624;23.334;2022-08-03T09:28:53;4.93;;;2.65;;
12474;SDS011;6302;42.624;23.334;2022-08-03T09:31:29;6.05;;;3.00;;
12474;SDS011;6302;42.624;23.334;2022-08-03T09:33:59;2.67;;;2.47;;
12474;SDS011;6302;42.624;23.334;2022-08-03T09:36:33;2.50;;;2.30;;
12474;SDS011;6302;42.624;23.334;2022-08-03T09:39:02;3.53;;;2.25;;
12474;SDS011;6302;42.624;23.334;2022-08-03T09:41:30;3.30;;;2.55;;
12474;SDS011;6302;42.624;23.334;2022-08-03T09:43:57;4.93;;;2.40;;
12474;SDS011;6302;42.624;23.334;2022-08-03T09:46:26;3.17;;;2.30;;
12474;SDS011;6302;42.624;23.334;2022-08-03T09:49:09;2.45;;;2.20;;
12474;SDS011;6302;42.624;23.334;2022-08-03T09:51:37;3.03;;;2.72;;
12474;SDS011;6302;42.624;23.334;2022-08-03T09:54:04;3.88;;;2.20;;
12474;SDS011;6302;42.624;23.334;2022-08-03T09:56:41;3.63;;;2.75;;
12474;SDS011;6302;42.624;23.334;2022-08-03T09:59:09;3.72;;;2.50;;
12474;SDS011;6302;42.624;23.334;2022-08-03T10:01:37;2.92;;;2.63;;
12474;SDS011;6302;42.624;23.334;2022-08-03T10:04:11;4.35;;;2.60;;
12474;SDS011;6302;42.624;23.334;2022-08-03T10:06:42;3.50;;;2.72;;
12474;SDS011;6302;42.624;23.334;2022-08-03T10:09:10;3.25;;;2.95;;
12474;SDS011;6302;42.624;23.334;2022-08-03T10:11:39;2.85;;;2.65;;
12474;SDS011;6302;42.624;23.334;2022-08-03T10:14:07;3.20;;;2.35;;
12474;SDS011;6302;42.624;23.334;2022-08-03T10:16:43;3.38;;;2.80;;
12474;SDS011;6302;42.624;23.334;2022-08-03T10:19:12;2.67;;;2.47;;
12474;SDS011;6302;42.624;23.334;2022-08-03T10:21:40;3.08;;;2.55;;
12474;SDS011;6302;42.624;23.334;2022-08-03T10:24:11;2.72;;;2.42;;
12474;SDS011;6302;42.624;23.334;2022-08-03T10:26:43;4.30;;;2.80;;
12474;SDS011;6302;42.624;23.334;2022-08-03T10:29:11;4.60;;;3.22;;
12474;SDS011;6302;42.624;23.334;2022-08-03T10:31:49;3.75;;;2.50;;
12474;SDS011;6302;42.624;23.334;2022-08-03T10:34:23;7.95;;;2.70;;
12474;SDS011;6302;42.624;23.334;2022-08-03T10:36:52;5.78;;;2.65;;
12474;SDS011;6302;42.624;23.334;2022-08-03T10:39:25;5.28;;;2.70;;
12474;SDS011;6302;42.624;23.334;2022-08-03T10:41:54;5.63;;;2.67;;
12474;SDS011;6302;42.624;23.334;2022-08-03T10:44:23;4.07;;;2.67;;
12474;SDS011;6302;42.624;23.334;2022-08-03T10:46:56;3.90;;;2.70;;
12474;SDS011;6302;42.624;23.334;2022-08-03T10:49:24;3.60;;;2.60;;
12474;SDS011;6302;42.624;23.334;2022-08-03T10:51:51;3.20;;;2.53;;
12474;SDS011;6302;42.624;23.334;2022-08-03T10:54:37;3.40;;;2.97;;
12474;SDS011;6302;42.624;23.334;2022-08-03T11:00:10;2.97;;;2.72;;
12474;SDS011;6302;42.624;23.334;2022-08-03T11:05:29;3.15;;;2.85;;
12474;SDS011;6302;42.624;23.334;2022-08-03T11:10:53;4.00;;;3.70;;
12474;SDS011;6302;42.624;23.334;2022-08-03T11:13:22;3.30;;;2.97;;
12474;SDS011;6302;42.624;23.334;2022-08-03T11:15:50;4.60;;;3.40;;
12474;SDS011;6302;42.624;23.334;2022-08-03T11:18:18;3.38;;;3.10;;
12474;SDS011;6302;42.624;23.334;2022-08-03T11:20:48;3.15;;;2.95;;
12474;SDS011;6302;42.624;23.334;2022-08-03T11:23:17;3.20;;;3.00;;
12474;SDS011;6302;42.624;23.334;2022-08-03T11:28:40;4.10;;;3.80;;
12474;SDS011;6302;42.624;23.334;2022-08-03T11:34:11;3.20;;;2.90;;
12474;SDS011;6302;42.624;23.334;2022-08-03T11:39:49;2.63;;;2.30;;
12474;SDS011;6302;42.624;23.334;2022-08-03T11:45:08;2.60;;;2.47;;
12474;SDS011;6302;42.624;23.334;2022-08-03T11:47:38;2.88;;;2.58;;
12474;SDS011;6302;42.624;23.334;2022-08-03T11:50:07;3.25;;;2.90;;
12474;SDS011;6302;42.624;23.334;2022-08-03T11:52:36;4.43;;;3.33;;
12474;SDS011;6302;42.624;23.334;2022-08-03T11:55:08;3.30;;;3.00;;
12474;SDS011;6302;42.624;23.334;2022-08-03T11:57:36;3.10;;;2.80;;
12474;SDS011;6302;42.624;23.334;2022-08-03T12:00:17;3.58;;;2.63;;
12474;SDS011;6302;42.624;23.334;2022-08-03T12:02:53;2.75;;;2.55;;
12474;SDS011;6302;42.624;23.334;2022-08-03T12:05:24;2.75;;;2.55;;
12474;SDS011;6302;42.624;23.334;2022-08-03T12:08:03;5.03;;;2.95;;
12474;SDS011;6302;42.624;23.334;2022-08-03T12:10:31;3.40;;;3.10;;
12474;SDS011;6302;42.624;23.334;2022-08-03T12:12:59;2.70;;;2.50;;
12474;SDS011;6302;42.624;23.334;2022-08-03T12:15:27;5.00;;;2.35;;
12474;SDS011;6302;42.624;23.334;2022-08-03T12:17:55;2.20;;;2.10;;
12474;SDS011;6302;42.624;23.334;2022-08-03T12:20:24;2.25;;;1.80;;
12474;SDS011;6302;42.624;23.334;2022-08-03T12:22:51;7.65;;;2.20;;
12474;SDS011;6302;42.624;23.334;2022-08-03T12:25:23;2.17;;;1.92;;
12474;SDS011;6302;42.624;23.334;2022-08-03T12:27:51;3.65;;;2.33;;
12474;SDS011;6302;42.624;23.334;2022-08-03T12:30:18;3.70;;;2.30;;
12474;SDS011;6302;42.624;23.334;2022-08-03T12:32:45;3.20;;;2.28;;
12474;SDS011;6302;42.624;23.334;2022-08-03T12:35:20;4.30;;;2.40;;
12474;SDS011;6302;42.624;23.334;2022-08-03T12:37:48;3.58;;;2.17;;
12474;SDS011;6302;42.624;23.334;2022-08-03T12:40:24;4.07;;;2.25;;
12474;SDS011;6302;42.624;23.334;2022-08-03T12:42:52;3.55;;;2.00;;
12474;SDS011;6302;42.624;23.334;2022-08-03T12:45:22;2.67;;;2.05;;
12474;SDS011;6302;42.624;23.334;2022-08-03T12:47:50;3.97;;;2.40;;
12474;SDS011;6302;42.624;23.334;2022-08-03T12:50:25;3.53;;;2.28;;
12474;SDS011;6302;42.624;23.334;2022-08-03T12:52:53;2.17;;;1.98;;
12474;SDS011;6302;42.624;23.334;2022-08-03T12:55:21;2.00;;;1.90;;
12474;SDS011;6302;42.624;23.334;2022-08-03T12:57:50;3.42;;;2.30;;
12474;SDS011;6302;42.624;23.334;2022-08-03T13:00:17;2.75;;;2.35;;
12474;SDS011;6302;42.624;23.334;2022-08-03T13:02:44;3.20;;;2.25;;
12474;SDS011;6302;42.624;23.334;2022-08-03T13:05:12;2.80;;;2.10;;
12474;SDS011;6302;42.624;23.334;2022-08-03T13:07:40;2.55;;;2.35;;
12474;SDS011;6302;42.624;23.334;2022-08-03T13:10:07;2.20;;;2.00;;
12474;SDS011;6302;42.624;23.334;2022-08-03T13:12:45;2.45;;;2.22;;
12474;SDS011;6302;42.624;23.334;2022-08-03T13:15:14;2.63;;;2.13;;
12474;SDS011;6302;42.624;23.334;2022-08-03T13:17:41;2.97;;;2.13;;
12474;SDS011;6302;42.624;23.334;2022-08-03T13:20:08;2.63;;;2.22;;
12474;SDS011;6302;42.624;23.334;2022-08-03T13:22:35;2.35;;;2.20;;
12474;SDS011;6302;42.624;23.334;2022-08-03T13:25:02;3.70;;;2.38;;
12474;SDS011;6302;42.624;23.334;2022-08-03T13:27:30;3.70;;;2.40;;
12474;SDS011;6302;42.624;23.334;2022-08-03T13:29:56;24.92;;;18.52;;
12474;SDS011;6302;42.624;23.334;2022-08-03T13:32:25;15.00;;;12.77;;
12474;SDS011;6302;42.624;23.334;2022-08-03T13:34:52;5.35;;;3.97;;
12474;SDS011;6302;42.624;23.334;2022-08-03T13:37:18;4.32;;;2.88;;
12474;SDS011;6302;42.624;23.334;2022-08-03T13:39:45;3.20;;;2.67;;
12474;SDS011;6302;42.624;23.334;2022-08-03T13:42:12;3.75;;;2.60;;
12474;SDS011;6302;42.624;23.334;2022-08-03T13:44:39;5.32;;;2.95;;
12474;SDS011;6302;42.624;23.334;2022-08-03T13:47:06;11.63;;;2.88;;
12474;SDS011;6302;42.624;23.334;2022-08-03T13:49:34;6.55;;;2.80;;
12474;SDS011;6302;42.624;23.334;2022-08-03T13:52:01;5.25;;;2.65;;
12474;SDS011;6302;42.624;23.334;2022-08-03T13:54:27;5.68;;;2.60;;
12474;SDS011;6302;42.624;23.334;2022-08-03T13:56:54;3.10;;;2.80;;
12474;SDS011;6302;42.624;23.334;2022-08-03T13:59:22;3.72;;;2.70;;
12474;SDS011;6302;42.624;23.334;2022-08-03T14:01:50;2.72;;;2.53;;
12474;SDS011;6302;42.624;23.334;2022-08-03T14:04:19;2.92;;;2.70;;
12474;SDS011;6302;42.624;23.334;2022-08-03T14:06:47;3.55;;;3.03;;
12474;SDS011;6302;42.624;23.334;2022-08-03T14:09:15;4.68;;;2.70;;
12474;SDS011;6302;42.624;23.334;2022-08-03T14:11:42;3.45;;;2.72;;
12474;SDS011;6302;42.624;23.334;2022-08-03T14:14:10;3.08;;;2.78;;
12474;SDS011;6302;42.624;23.334;2022-08-03T14:16:37;3.20;;;2.88;;
12474;SDS011;6302;42.624;23.334;2022-08-03T14:19:05;3.00;;;2.80;;
12474;SDS011;6302;42.624;23.334;2022-08-03T14:21:32;3.20;;;2.78;;
12474;SDS011;6302;42.624;23.334;2022-08-03T14:24:00;3.88;;;3.13;;
12474;SDS011;6302;42.624;23.334;2022-08-03T14:26:28;3.30;;;3.10;;
12474;SDS011;6302;42.624;23.334;2022-08-03T14:28:55;2.95;;;2.75;;
12474;SDS011;6302;42.624;23.334;2022-08-03T14:31:22;2.83;;;2.63;;
12474;SDS011;6302;42.624;23.334;2022-08-03T14:33:49;3.10;;;2.90;;
12474;SDS011;6302;42.624;23.334;2022-08-03T14:36:15;3.15;;;2.83;;
12474;SDS011;6302;42.624;23.334;2022-08-03T14:38:42;2.75;;;2.55;;
12474;SDS011;6302;42.624;23.334;2022-08-03T14:41:11;4.00;;;2.80;;
12474;SDS011;6302;42.624;23.334;2022-08-03T14:43:38;2.92;;;2.72;;
12474;SDS011;6302;42.624;23.334;2022-08-03T14:46:06;4.45;;;2.67;;
12474;SDS011;6302;42.624;23.334;2022-08-03T14:48:33;2.95;;;2.70;;
12474;SDS011;6302;42.624;23.334;2022-08-03T14:51:00;3.88;;;2.40;;
12474;SDS011;6302;42.624;23.334;2022-08-03T14:53:27;2.70;;;2.50;;
12474;SDS011;6302;42.624;23.334;2022-08-03T14:55:54;2.80;;;2.60;;
12474;SDS011;6302;42.624;23.334;2022-08-03T14:58:22;2.65;;;2.45;;
12474;SDS011;6302;42.624;23.334;2022-08-03T15:00:51;5.95;;;3.20;;
12474;SDS011;6302;42.624;23.334;2022-08-03T15:03:19;2.97;;;2.25;;
12474;SDS011;6302;42.624;23.334;2022-08-03T15:05:48;2.45;;;2.30;;
12474;SDS011;6302;42.624;23.334;2022-08-03T15:08:15;2.50;;;2.30;;
12474;SDS011;6302;42.624;23.334;2022-08-03T15:10:42;2.78;;;2.47;;
12474;SDS011;6302;42.624;23.334;2022-08-03T15:13:09;2.63;;;2.42;;
12474;SDS011;6302;42.624;23.334;2022-08-03T15:15:37;2.03;;;1.92;;
12474;SDS011;6302;42.624;23.334;2022-08-03T15:18:04;2.78;;;2.58;;
12474;SDS011;6302;42.624;23.334;2022-08-03T15:20:31;2.30;;;2.20;;
12474;SDS011;6302;42.624;23.334;2022-08-03T15:22:58;3.83;;;2.53;;
12474;SDS011;6302;42.624;23.334;2022-08-03T15:25:25;2.55;;;2.30;;
12474;SDS011;6302;42.624;23.334;2022-08-03T15:27:52;5.38;;;2.55;;